sensor_id;sensor_type;location;lat;lon;timestamp;temperature;humidity
10294;DHT22;5192;50.328;7.610;2023-07-24T00:00:49;20.00;29.90
10294;DHT22;5192;50.328;7.610;2023-07-24T00:03:19;20.00;29.30
10294;DHT22;5192;50.328;7.610;2023-07-24T00:05:47;20.00;28.20
10294;DHT22;5192;50.328;7.610;2023-07-24T00:08:16;20.10;27.80
10294;DHT22;5192;50.328;7.610;2023-07-24T00:10:41;20.10;27.10
10294;DHT22;5192;50.328;7.610;2023-07-24T00:13:09;20.10;27.90
10294;DHT22;5192;50.328;7.610;2023-07-24T00:15:41;20.10;28.30
10294;DHT22;5192;50.328;7.610;2023-07-24T00:18:08;20.10;27.60
10294;DHT22;5192;50.328;7.610;2023-07-24T00:20:35;20.10;26.90
10294;DHT22;5192;50.328;7.610;2023-07-24T00:23:01;20.20;28.00
10294;DHT22;5192;50.328;7.610;2023-07-24T00:25:31;20.20;26.60
10294;DHT22;5192;50.328;7.610;2023-07-24T00:27:58;20.20;26.40
10294;DHT22;5192;50.328;7.610;2023-07-24T00:30:26;20.20;26.50
10294;DHT22;5192;50.328;7.610;2023-07-24T00:32:54;20.20;25.80
10294;DHT22;5192;50.328;7.610;2023-07-24T00:35:19;20.20;25.70
10294;DHT22;5192;50.328;7.610;2023-07-24T00:37:47;20.30;25.40
10294;DHT22;5192;50.328;7.610;2023-07-24T00:40:13;20.20;25.20
10294;DHT22;5192;50.328;7.610;2023-07-24T00:42:40;20.30;24.70
10294;DHT22;5192;50.328;7.610;2023-07-24T00:45:09;20.20;24.40
10294;DHT22;5192;50.328;7.610;2023-07-24T00:47:36;20.20;25.20
10294;DHT22;5192;50.328;7.610;2023-07-24T00:50:04;20.30;23.90
10294;DHT22;5192;50.328;7.610;2023-07-24T00:52:33;20.30;23.80
10294;DHT22;5192;50.328;7.610;2023-07-24T00:55:01;20.30;23.30
10294;DHT22;5192;50.328;7.610;2023-07-24T00:57:28;20.30;22.80
10294;DHT22;5192;50.328;7.610;2023-07-24T00:59:55;20.30;22.30
10294;DHT22;5192;50.328;7.610;2023-07-24T01:02:22;20.30;21.80
10294;DHT22;5192;50.328;7.610;2023-07-24T01:04:48;20.30;21.40
10294;DHT22;5192;50.328;7.610;2023-07-24T01:07:14;20.40;20.80
10294;DHT22;5192;50.328;7.610;2023-07-24T01:09:45;20.40;19.60
10294;DHT22;5192;50.328;7.610;2023-07-24T01:12:36;20.50;20.20
10294;DHT22;5192;50.328;7.610;2023-07-24T01:15:22;20.50;19.60
10294;DHT22;5192;50.328;7.610;2023-07-24T01:18:19;20.50;18.30
10294;DHT22;5192;50.328;7.610;2023-07-24T01:20:50;20.60;18.30
10294;DHT22;5192;50.328;7.610;2023-07-24T01:26:03;20.50;21.00
10294;DHT22;5192;50.328;7.610;2023-07-24T01:28:31;20.40;19.50
10294;DHT22;5192;50.328;7.610;2023-07-24T01:30:57;20.40;19.90
10294;DHT22;5192;50.328;7.610;2023-07-24T01:33:28;20.40;19.60
10294;DHT22;5192;50.328;7.610;2023-07-24T01:36:01;20.40;20.30
10294;DHT22;5192;50.328;7.610;2023-07-24T01:38:34;20.40;19.40
10294;DHT22;5192;50.328;7.610;2023-07-24T01:41:04;20.40;19.60
10294;DHT22;5192;50.328;7.610;2023-07-24T01:43:32;20.40;20.40
10294;DHT22;5192;50.328;7.610;2023-07-24T01:45:59;20.40;20.20
10294;DHT22;5192;50.328;7.610;2023-07-24T01:48:26;20.40;21.40
10294;DHT22;5192;50.328;7.610;2023-07-24T01:50:57;20.30;21.80
10294;DHT22;5192;50.328;7.610;2023-07-24T01:53:23;20.30;23.60
10294;DHT22;5192;50.328;7.610;2023-07-24T01:55:51;20.30;30.00
10294;DHT22;5192;50.328;7.610;2023-07-24T01:58:20;20.20;35.60
10294;DHT22;5192;50.328;7.610;2023-07-24T02:00:47;20.10;41.80
10294;DHT22;5192;50.328;7.610;2023-07-24T02:03:14;19.90;48.60
10294;DHT22;5192;50.328;7.610;2023-07-24T02:05:41;19.80;55.70
10294;DHT22;5192;50.328;7.610;2023-07-24T02:08:07;19.60;63.00
10294;DHT22;5192;50.328;7.610;2023-07-24T02:10:37;19.50;68.00
10294;DHT22;5192;50.328;7.610;2023-07-24T02:13:05;19.30;57.80
10294;DHT22;5192;50.328;7.610;2023-07-24T02:15:34;19.20;54.90
10294;DHT22;5192;50.328;7.610;2023-07-24T02:18:01;19.10;56.40
10294;DHT22;5192;50.328;7.610;2023-07-24T02:20:28;19.10;57.60
10294;DHT22;5192;50.328;7.610;2023-07-24T02:22:55;19.20;47.50
10294;DHT22;5192;50.328;7.610;2023-07-24T02:25:23;19.30;43.80
10294;DHT22;5192;50.328;7.610;2023-07-24T02:27:49;19.30;42.00
10294;DHT22;5192;50.328;7.610;2023-07-24T02:30:17;19.40;39.30
10294;DHT22;5192;50.328;7.610;2023-07-24T02:32:45;19.40;37.20
10294;DHT22;5192;50.328;7.610;2023-07-24T02:35:11;19.50;39.90
10294;DHT22;5192;50.328;7.610;2023-07-24T02:37:39;19.50;54.10
10294;DHT22;5192;50.328;7.610;2023-07-24T02:40:05;19.40;58.90
10294;DHT22;5192;50.328;7.610;2023-07-24T02:42:32;19.40;61.80
10294;DHT22;5192;50.328;7.610;2023-07-24T02:44:58;19.30;66.00
10294;DHT22;5192;50.328;7.610;2023-07-24T02:47:25;19.20;68.90
10294;DHT22;5192;50.328;7.610;2023-07-24T02:49:51;19.10;71.90
10294;DHT22;5192;50.328;7.610;2023-07-24T02:52:18;19.00;74.70
10294;DHT22;5192;50.328;7.610;2023-07-24T02:54:47;18.90;75.70
10294;DHT22;5192;50.328;7.610;2023-07-24T02:57:15;18.90;76.20
10294;DHT22;5192;50.328;7.610;2023-07-24T02:59:42;18.90;77.20
10294;DHT22;5192;50.328;7.610;2023-07-24T03:02:07;18.80;73.90
10294;DHT22;5192;50.328;7.610;2023-07-24T03:04:36;18.80;66.60
10294;DHT22;5192;50.328;7.610;2023-07-24T03:07:03;18.70;64.90
10294;DHT22;5192;50.328;7.610;2023-07-24T03:09:33;18.80;70.80
10294;DHT22;5192;50.328;7.610;2023-07-24T03:12:00;18.80;73.80
10294;DHT22;5192;50.328;7.610;2023-07-24T03:14:27;18.80;74.90
10294;DHT22;5192;50.328;7.610;2023-07-24T03:16:54;18.70;77.10
10294;DHT22;5192;50.328;7.610;2023-07-24T03:19:21;18.70;78.30
10294;DHT22;5192;50.328;7.610;2023-07-24T03:21:47;18.60;79.10
10294;DHT22;5192;50.328;7.610;2023-07-24T03:24:14;18.60;80.80
10294;DHT22;5192;50.328;7.610;2023-07-24T03:26:42;18.50;79.70
10294;DHT22;5192;50.328;7.610;2023-07-24T03:29:08;18.50;68.80
10294;DHT22;5192;50.328;7.610;2023-07-24T03:31:34;18.50;58.30
10294;DHT22;5192;50.328;7.610;2023-07-24T03:34:02;18.70;59.30
10294;DHT22;5192;50.328;7.610;2023-07-24T03:36:30;18.70;47.90
10294;DHT22;5192;50.328;7.610;2023-07-24T03:38:58;18.70;42.70
10294;DHT22;5192;50.328;7.610;2023-07-24T03:41:25;18.90;38.80
10294;DHT22;5192;50.328;7.610;2023-07-24T03:43:55;19.00;34.70
10294;DHT22;5192;50.328;7.610;2023-07-24T03:46:24;19.10;33.40
10294;DHT22;5192;50.328;7.610;2023-07-24T03:48:52;19.10;31.40
10294;DHT22;5192;50.328;7.610;2023-07-24T03:51:19;19.10;30.00
10294;DHT22;5192;50.328;7.610;2023-07-24T03:53:46;19.20;27.60
10294;DHT22;5192;50.328;7.610;2023-07-24T03:56:13;19.20;29.90
10294;DHT22;5192;50.328;7.610;2023-07-24T03:58:40;19.20;28.10
10294;DHT22;5192;50.328;7.610;2023-07-24T04:01:09;19.20;28.90
10294;DHT22;5192;50.328;7.610;2023-07-24T04:03:35;19.20;27.40
10294;DHT22;5192;50.328;7.610;2023-07-24T04:06:03;19.20;28.50
10294;DHT22;5192;50.328;7.610;2023-07-24T04:08:29;19.20;27.80
10294;DHT22;5192;50.328;7.610;2023-07-24T04:10:56;19.20;27.60
10294;DHT22;5192;50.328;7.610;2023-07-24T04:13:22;19.30;28.80
10294;DHT22;5192;50.328;7.610;2023-07-24T04:15:49;19.30;27.70
10294;DHT22;5192;50.328;7.610;2023-07-24T04:18:17;19.30;26.90
10294;DHT22;5192;50.328;7.610;2023-07-24T04:20:45;19.30;26.10
10294;DHT22;5192;50.328;7.610;2023-07-24T04:23:13;19.30;26.20
10294;DHT22;5192;50.328;7.610;2023-07-24T04:25:40;19.30;24.80
10294;DHT22;5192;50.328;7.610;2023-07-24T04:28:08;19.40;26.10
10294;DHT22;5192;50.328;7.610;2023-07-24T04:30:35;19.50;22.70
10294;DHT22;5192;50.328;7.610;2023-07-24T04:33:00;19.50;22.30
10294;DHT22;5192;50.328;7.610;2023-07-24T04:35:27;19.60;20.80
10294;DHT22;5192;50.328;7.610;2023-07-24T04:37:55;19.60;22.70
10294;DHT22;5192;50.328;7.610;2023-07-24T04:40:24;19.70;20.70
10294;DHT22;5192;50.328;7.610;2023-07-24T04:42:51;19.70;19.70
10294;DHT22;5192;50.328;7.610;2023-07-24T04:45:17;19.80;18.10
10294;DHT22;5192;50.328;7.610;2023-07-24T04:47:45;19.90;16.20
10294;DHT22;5192;50.328;7.610;2023-07-24T04:50:12;19.90;15.40
10294;DHT22;5192;50.328;7.610;2023-07-24T04:52:40;20.00;14.90
10294;DHT22;5192;50.328;7.610;2023-07-24T04:55:06;20.00;15.00
10294;DHT22;5192;50.328;7.610;2023-07-24T04:57:31;20.00;14.80
10294;DHT22;5192;50.328;7.610;2023-07-24T04:59:57;20.00;15.20
10294;DHT22;5192;50.328;7.610;2023-07-24T05:02:24;20.00;14.50
10294;DHT22;5192;50.328;7.610;2023-07-24T05:04:52;20.00;14.60
10294;DHT22;5192;50.328;7.610;2023-07-24T05:07:19;20.10;14.30
10294;DHT22;5192;50.328;7.610;2023-07-24T05:09:47;20.10;12.60
10294;DHT22;5192;50.328;7.610;2023-07-24T05:12:15;20.20;13.50
10294;DHT22;5192;50.328;7.610;2023-07-24T05:14:41;20.20;13.60
10294;DHT22;5192;50.328;7.610;2023-07-24T05:17:08;20.30;11.70
10294;DHT22;5192;50.328;7.610;2023-07-24T05:19:36;20.30;11.80
10294;DHT22;5192;50.328;7.610;2023-07-24T05:22:03;20.30;11.50
10294;DHT22;5192;50.328;7.610;2023-07-24T05:24:31;20.30;10.00
10294;DHT22;5192;50.328;7.610;2023-07-24T05:26:58;20.40;10.60
10294;DHT22;5192;50.328;7.610;2023-07-24T05:29:25;20.40;10.50
10294;DHT22;5192;50.328;7.610;2023-07-24T05:31:52;20.40;10.60
10294;DHT22;5192;50.328;7.610;2023-07-24T05:34:21;20.40;10.90
10294;DHT22;5192;50.328;7.610;2023-07-24T05:36:48;20.50;10.60
10294;DHT22;5192;50.328;7.610;2023-07-24T05:39:15;20.40;10.30
10294;DHT22;5192;50.328;7.610;2023-07-24T05:41:45;20.40;10.50
10294;DHT22;5192;50.328;7.610;2023-07-24T05:44:12;20.40;10.10
10294;DHT22;5192;50.328;7.610;2023-07-24T05:46:39;20.50;10.30
10294;DHT22;5192;50.328;7.610;2023-07-24T05:49:06;20.50;11.00
10294;DHT22;5192;50.328;7.610;2023-07-24T05:51:34;20.50;9.10
10294;DHT22;5192;50.328;7.610;2023-07-24T05:54:01;20.60;9.30
10294;DHT22;5192;50.328;7.610;2023-07-24T05:56:28;20.60;8.70
10294;DHT22;5192;50.328;7.610;2023-07-24T05:58:56;20.60;8.80
10294;DHT22;5192;50.328;7.610;2023-07-24T06:01:24;20.60;9.10
10294;DHT22;5192;50.328;7.610;2023-07-24T06:03:51;20.60;9.10
10294;DHT22;5192;50.328;7.610;2023-07-24T06:06:18;20.70;8.30
10294;DHT22;5192;50.328;7.610;2023-07-24T06:08:46;20.70;7.90
10294;DHT22;5192;50.328;7.610;2023-07-24T06:11:14;20.80;7.40
10294;DHT22;5192;50.328;7.610;2023-07-24T06:13:42;20.80;7.50
10294;DHT22;5192;50.328;7.610;2023-07-24T06:16:09;20.80;6.20
10294;DHT22;5192;50.328;7.610;2023-07-24T06:18:40;20.90;6.30
10294;DHT22;5192;50.328;7.610;2023-07-24T06:21:08;20.80;5.50
10294;DHT22;5192;50.328;7.610;2023-07-24T06:23:35;20.90;7.00
10294;DHT22;5192;50.328;7.610;2023-07-24T06:26:02;20.90;7.10
10294;DHT22;5192;50.328;7.610;2023-07-24T06:28:29;21.00;4.90
10294;DHT22;5192;50.328;7.610;2023-07-24T06:30:55;21.00;4.20
10294;DHT22;5192;50.328;7.610;2023-07-24T06:33:22;21.00;4.50
10294;DHT22;5192;50.328;7.610;2023-07-24T06:35:49;21.00;4.10
10294;DHT22;5192;50.328;7.610;2023-07-24T06:38:16;21.10;3.50
10294;DHT22;5192;50.328;7.610;2023-07-24T06:40:44;21.10;4.30
10294;DHT22;5192;50.328;7.610;2023-07-24T06:43:12;21.20;3.70
10294;DHT22;5192;50.328;7.610;2023-07-24T06:45:38;21.30;2.20
10294;DHT22;5192;50.328;7.610;2023-07-24T06:48:06;21.30;2.20
10294;DHT22;5192;50.328;7.610;2023-07-24T06:50:35;21.40;1.00
10294;DHT22;5192;50.328;7.610;2023-07-24T06:53:02;21.40;1.00
10294;DHT22;5192;50.328;7.610;2023-07-24T06:55:29;21.50;1.00
10294;DHT22;5192;50.328;7.610;2023-07-24T06:57:56;21.40;1.00
10294;DHT22;5192;50.328;7.610;2023-07-24T07:00:23;21.40;1.00
10294;DHT22;5192;50.328;7.610;2023-07-24T07:02:49;21.40;1.00
10294;DHT22;5192;50.328;7.610;2023-07-24T07:05:17;21.30;1.00
10294;DHT22;5192;50.328;7.610;2023-07-24T07:07:44;21.30;1.00
10294;DHT22;5192;50.328;7.610;2023-07-24T07:10:11;21.30;1.00
10294;DHT22;5192;50.328;7.610;2023-07-24T07:12:41;21.30;1.00
10294;DHT22;5192;50.328;7.610;2023-07-24T07:15:08;21.30;1.00
10294;DHT22;5192;50.328;7.610;2023-07-24T07:17:35;21.30;1.00
10294;DHT22;5192;50.328;7.610;2023-07-24T07:20:02;21.30;1.00
10294;DHT22;5192;50.328;7.610;2023-07-24T07:22:29;21.30;1.00
10294;DHT22;5192;50.328;7.610;2023-07-24T07:24:56;21.30;1.00
10294;DHT22;5192;50.328;7.610;2023-07-24T07:27:23;21.30;1.00
10294;DHT22;5192;50.328;7.610;2023-07-24T07:29:50;21.30;1.00
10294;DHT22;5192;50.328;7.610;2023-07-24T07:32:17;21.20;1.00
10294;DHT22;5192;50.328;7.610;2023-07-24T07:34:43;21.20;1.30
10294;DHT22;5192;50.328;7.610;2023-07-24T07:37:11;21.20;1.00
10294;DHT22;5192;50.328;7.610;2023-07-24T07:39:38;21.20;1.00
10294;DHT22;5192;50.328;7.610;2023-07-24T07:42:06;21.30;1.40
10294;DHT22;5192;50.328;7.610;2023-07-24T07:44:32;21.20;3.20
10294;DHT22;5192;50.328;7.610;2023-07-24T07:47:01;21.20;2.60
10294;DHT22;5192;50.328;7.610;2023-07-24T07:49:27;21.20;3.00
10294;DHT22;5192;50.328;7.610;2023-07-24T07:51:55;21.20;5.10
10294;DHT22;5192;50.328;7.610;2023-07-24T07:54:22;21.10;5.20
10294;DHT22;5192;50.328;7.610;2023-07-24T07:56:49;21.00;7.60
10294;DHT22;5192;50.328;7.610;2023-07-24T07:59:16;21.00;12.00
10294;DHT22;5192;50.328;7.610;2023-07-24T08:01:43;21.00;11.20
10294;DHT22;5192;50.328;7.610;2023-07-24T08:04:12;20.90;21.20
10294;DHT22;5192;50.328;7.610;2023-07-24T08:06:39;21.00;20.80
10294;DHT22;5192;50.328;7.610;2023-07-24T08:09:05;21.10;16.20
10294;DHT22;5192;50.328;7.610;2023-07-24T08:11:32;21.10;12.10
10294;DHT22;5192;50.328;7.610;2023-07-24T08:13:59;21.10;14.30
10294;DHT22;5192;50.328;7.610;2023-07-24T08:16:27;21.20;9.60
10294;DHT22;5192;50.328;7.610;2023-07-24T08:18:53;21.30;11.70
10294;DHT22;5192;50.328;7.610;2023-07-24T08:21:21;21.50;13.00
10294;DHT22;5192;50.328;7.610;2023-07-24T08:23:48;21.70;7.20
10294;DHT22;5192;50.328;7.610;2023-07-24T08:26:15;21.80;4.40
10294;DHT22;5192;50.328;7.610;2023-07-24T08:28:43;21.90;3.80
10294;DHT22;5192;50.328;7.610;2023-07-24T08:31:09;22.00;1.00
10294;DHT22;5192;50.328;7.610;2023-07-24T08:33:36;22.10;1.00
10294;DHT22;5192;50.328;7.610;2023-07-24T08:36:06;22.30;2.50
10294;DHT22;5192;50.328;7.610;2023-07-24T08:38:33;22.40;1.00
10294;DHT22;5192;50.328;7.610;2023-07-24T08:41:11;22.30;1.00
10294;DHT22;5192;50.328;7.610;2023-07-24T08:43:39;22.30;1.00
10294;DHT22;5192;50.328;7.610;2023-07-24T08:46:06;22.10;1.00
10294;DHT22;5192;50.328;7.610;2023-07-24T08:48:51;22.10;1.00
10294;DHT22;5192;50.328;7.610;2023-07-24T08:51:19;22.20;1.00
10294;DHT22;5192;50.328;7.610;2023-07-24T08:53:51;22.10;1.00
10294;DHT22;5192;50.328;7.610;2023-07-24T08:56:17;22.00;1.00
10294;DHT22;5192;50.328;7.610;2023-07-24T08:58:45;21.90;1.00
10294;DHT22;5192;50.328;7.610;2023-07-24T09:01:13;21.80;1.00
10294;DHT22;5192;50.328;7.610;2023-07-24T09:03:40;21.90;2.40
10294;DHT22;5192;50.328;7.610;2023-07-24T09:06:08;21.90;1.50
10294;DHT22;5192;50.328;7.610;2023-07-24T09:08:40;22.00;2.80
10294;DHT22;5192;50.328;7.610;2023-07-24T09:11:08;22.10;1.00
10294;DHT22;5192;50.328;7.610;2023-07-24T09:13:42;22.20;1.00
10294;DHT22;5192;50.328;7.610;2023-07-24T09:16:08;22.40;1.00
10294;DHT22;5192;50.328;7.610;2023-07-24T09:18:42;22.40;1.00
10294;DHT22;5192;50.328;7.610;2023-07-24T09:21:09;22.50;1.00
10294;DHT22;5192;50.328;7.610;2023-07-24T09:23:36;22.70;1.00
10294;DHT22;5192;50.328;7.610;2023-07-24T09:26:06;22.90;1.00
10294;DHT22;5192;50.328;7.610;2023-07-24T09:28:34;22.90;1.00
10294;DHT22;5192;50.328;7.610;2023-07-24T09:31:00;23.00;1.00
10294;DHT22;5192;50.328;7.610;2023-07-24T09:33:38;23.10;1.00
10294;DHT22;5192;50.328;7.610;2023-07-24T09:36:07;23.00;1.00
10294;DHT22;5192;50.328;7.610;2023-07-24T09:38:36;22.90;1.00
10294;DHT22;5192;50.328;7.610;2023-07-24T09:41:03;22.80;1.00
10294;DHT22;5192;50.328;7.610;2023-07-24T09:43:31;22.60;1.00
10294;DHT22;5192;50.328;7.610;2023-07-24T09:45:59;22.60;1.00
10294;DHT22;5192;50.328;7.610;2023-07-24T09:48:26;22.50;1.00
10294;DHT22;5192;50.328;7.610;2023-07-24T09:50:55;22.50;1.00
10294;DHT22;5192;50.328;7.610;2023-07-24T09:53:50;22.60;1.00
10294;DHT22;5192;50.328;7.610;2023-07-24T09:56:19;22.70;1.00
10294;DHT22;5192;50.328;7.610;2023-07-24T09:58:46;22.80;1.00
10294;DHT22;5192;50.328;7.610;2023-07-24T10:01:15;22.90;1.00
10294;DHT22;5192;50.328;7.610;2023-07-24T10:03:48;22.90;1.00
10294;DHT22;5192;50.328;7.610;2023-07-24T10:06:15;22.90;1.00
10294;DHT22;5192;50.328;7.610;2023-07-24T10:08:43;23.10;1.00
10294;DHT22;5192;50.328;7.610;2023-07-24T10:11:13;23.10;1.00
10294;DHT22;5192;50.328;7.610;2023-07-24T10:13:42;23.40;1.00
10294;DHT22;5192;50.328;7.610;2023-07-24T10:16:09;23.70;1.00
10294;DHT22;5192;50.328;7.610;2023-07-24T10:18:46;24.00;1.00
10294;DHT22;5192;50.328;7.610;2023-07-24T10:21:12;24.20;1.00
10294;DHT22;5192;50.328;7.610;2023-07-24T10:23:43;24.10;1.00
10294;DHT22;5192;50.328;7.610;2023-07-24T10:26:12;23.90;1.00
10294;DHT22;5192;50.328;7.610;2023-07-24T10:28:40;23.80;1.00
10294;DHT22;5192;50.328;7.610;2023-07-24T10:31:24;23.70;1.00
10294;DHT22;5192;50.328;7.610;2023-07-24T10:33:54;23.70;1.00
10294;DHT22;5192;50.328;7.610;2023-07-24T10:36:22;23.90;1.00
10294;DHT22;5192;50.328;7.610;2023-07-24T10:38:56;23.70;1.00
10294;DHT22;5192;50.328;7.610;2023-07-24T10:41:37;23.60;1.00
10294;DHT22;5192;50.328;7.610;2023-07-24T10:44:04;23.80;1.00
10294;DHT22;5192;50.328;7.610;2023-07-24T10:46:41;23.70;1.00
10294;DHT22;5192;50.328;7.610;2023-07-24T10:49:11;23.90;1.00
10294;DHT22;5192;50.328;7.610;2023-07-24T10:51:38;24.00;1.00
10294;DHT22;5192;50.328;7.610;2023-07-24T10:54:07;24.20;1.00
10294;DHT22;5192;50.328;7.610;2023-07-24T10:56:36;24.20;1.00
10294;DHT22;5192;50.328;7.610;2023-07-24T10:59:05;24.00;1.00
10294;DHT22;5192;50.328;7.610;2023-07-24T11:01:32;24.00;1.00
10294;DHT22;5192;50.328;7.610;2023-07-24T11:04:00;23.90;1.00
10294;DHT22;5192;50.328;7.610;2023-07-24T11:06:27;24.10;1.00
10294;DHT22;5192;50.328;7.610;2023-07-24T11:08:59;24.20;1.00
10294;DHT22;5192;50.328;7.610;2023-07-24T11:11:31;24.10;1.00
10294;DHT22;5192;50.328;7.610;2023-07-24T11:13:58;24.10;1.00
10294;DHT22;5192;50.328;7.610;2023-07-24T11:16:25;24.50;1.00
10294;DHT22;5192;50.328;7.610;2023-07-24T11:18:51;24.50;1.00
10294;DHT22;5192;50.328;7.610;2023-07-24T11:21:19;24.80;1.00
10294;DHT22;5192;50.328;7.610;2023-07-24T11:23:51;24.80;1.00
10294;DHT22;5192;50.328;7.610;2023-07-24T11:26:19;24.80;1.00
10294;DHT22;5192;50.328;7.610;2023-07-24T11:28:48;25.10;1.00
10294;DHT22;5192;50.328;7.610;2023-07-24T11:31:15;25.20;1.00
10294;DHT22;5192;50.328;7.610;2023-07-24T11:33:41;25.50;1.00
10294;DHT22;5192;50.328;7.610;2023-07-24T11:36:11;25.70;1.00
10294;DHT22;5192;50.328;7.610;2023-07-24T11:38:40;26.00;1.00
10294;DHT22;5192;50.328;7.610;2023-07-24T11:41:08;26.10;1.00
10294;DHT22;5192;50.328;7.610;2023-07-24T11:43:35;26.10;1.00
10294;DHT22;5192;50.328;7.610;2023-07-24T11:46:03;26.20;1.00
10294;DHT22;5192;50.328;7.610;2023-07-24T11:48:29;26.10;1.00
10294;DHT22;5192;50.328;7.610;2023-07-24T11:50:57;25.80;1.00
10294;DHT22;5192;50.328;7.610;2023-07-24T11:53:42;25.60;1.00
10294;DHT22;5192;50.328;7.610;2023-07-24T11:56:14;25.30;1.00
10294;DHT22;5192;50.328;7.610;2023-07-24T11:58:42;25.20;1.00
10294;DHT22;5192;50.328;7.610;2023-07-24T12:01:10;25.10;1.00
10294;DHT22;5192;50.328;7.610;2023-07-24T12:03:36;25.20;1.00
10294;DHT22;5192;50.328;7.610;2023-07-24T12:06:05;25.30;1.00
10294;DHT22;5192;50.328;7.610;2023-07-24T12:08:34;25.40;1.00
10294;DHT22;5192;50.328;7.610;2023-07-24T12:11:02;25.30;1.00
10294;DHT22;5192;50.328;7.610;2023-07-24T12:13:29;25.00;1.00
10294;DHT22;5192;50.328;7.610;2023-07-24T12:15:58;25.10;1.00
10294;DHT22;5192;50.328;7.610;2023-07-24T12:18:25;25.00;1.00
10294;DHT22;5192;50.328;7.610;2023-07-24T12:20:52;25.00;1.00
10294;DHT22;5192;50.328;7.610;2023-07-24T12:23:18;25.00;1.00
10294;DHT22;5192;50.328;7.610;2023-07-24T12:25:44;25.50;1.00
10294;DHT22;5192;50.328;7.610;2023-07-24T12:28:11;25.80;1.00
10294;DHT22;5192;50.328;7.610;2023-07-24T12:30:36;26.10;1.00
10294;DHT22;5192;50.328;7.610;2023-07-24T12:33:04;26.30;1.00
10294;DHT22;5192;50.328;7.610;2023-07-24T12:35:31;26.60;1.00
10294;DHT22;5192;50.328;7.610;2023-07-24T12:37:58;26.30;1.00
10294;DHT22;5192;50.328;7.610;2023-07-24T12:40:27;26.20;1.00
10294;DHT22;5192;50.328;7.610;2023-07-24T12:42:56;26.00;1.00
10294;DHT22;5192;50.328;7.610;2023-07-24T12:45:22;24.90;1.00
10294;DHT22;5192;50.328;7.610;2023-07-24T12:47:50;24.70;1.00
10294;DHT22;5192;50.328;7.610;2023-07-24T12:50:16;24.90;1.00
10294;DHT22;5192;50.328;7.610;2023-07-24T12:52:43;25.10;1.00
10294;DHT22;5192;50.328;7.610;2023-07-24T12:55:08;25.30;1.00
10294;DHT22;5192;50.328;7.610;2023-07-24T12:57:35;25.50;1.00
10294;DHT22;5192;50.328;7.610;2023-07-24T13:00:03;25.50;1.00
10294;DHT22;5192;50.328;7.610;2023-07-24T13:02:33;25.50;1.00
10294;DHT22;5192;50.328;7.610;2023-07-24T13:05:00;25.50;1.00
10294;DHT22;5192;50.328;7.610;2023-07-24T13:07:28;25.50;1.00
10294;DHT22;5192;50.328;7.610;2023-07-24T13:09:55;25.70;1.00
10294;DHT22;5192;50.328;7.610;2023-07-24T13:12:26;26.00;1.00
10294;DHT22;5192;50.328;7.610;2023-07-24T13:14:53;26.10;1.00
10294;DHT22;5192;50.328;7.610;2023-07-24T13:17:18;25.70;1.00
10294;DHT22;5192;50.328;7.610;2023-07-24T13:19:46;25.40;1.00
10294;DHT22;5192;50.328;7.610;2023-07-24T13:22:13;25.10;1.00
10294;DHT22;5192;50.328;7.610;2023-07-24T13:24:38;25.10;1.00
10294;DHT22;5192;50.328;7.610;2023-07-24T13:27:07;24.80;1.00
10294;DHT22;5192;50.328;7.610;2023-07-24T13:29:34;24.90;1.00
10294;DHT22;5192;50.328;7.610;2023-07-24T13:32:02;25.20;1.00
10294;DHT22;5192;50.328;7.610;2023-07-24T13:34:28;25.10;1.00
10294;DHT22;5192;50.328;7.610;2023-07-24T13:36:55;25.30;1.00
10294;DHT22;5192;50.328;7.610;2023-07-24T13:39:24;25.20;1.00
10294;DHT22;5192;50.328;7.610;2023-07-24T13:41:51;25.60;1.00
10294;DHT22;5192;50.328;7.610;2023-07-24T13:44:18;25.60;1.00
10294;DHT22;5192;50.328;7.610;2023-07-24T13:46:46;25.70;1.00
10294;DHT22;5192;50.328;7.610;2023-07-24T13:49:14;25.70;1.00
10294;DHT22;5192;50.328;7.610;2023-07-24T13:51:41;25.60;1.00
10294;DHT22;5192;50.328;7.610;2023-07-24T13:54:08;25.90;1.00
10294;DHT22;5192;50.328;7.610;2023-07-24T13:56:34;25.80;1.00
10294;DHT22;5192;50.328;7.610;2023-07-24T13:59:03;25.80;1.00
10294;DHT22;5192;50.328;7.610;2023-07-24T14:01:29;25.90;1.00
10294;DHT22;5192;50.328;7.610;2023-07-24T14:03:57;26.00;1.00
10294;DHT22;5192;50.328;7.610;2023-07-24T14:06:24;25.10;1.00
10294;DHT22;5192;50.328;7.610;2023-07-24T14:08:53;25.10;1.00
10294;DHT22;5192;50.328;7.610;2023-07-24T14:11:19;25.30;1.00
10294;DHT22;5192;50.328;7.610;2023-07-24T14:13:47;26.00;1.00
10294;DHT22;5192;50.328;7.610;2023-07-24T14:16:14;26.50;1.00
10294;DHT22;5192;50.328;7.610;2023-07-24T14:18:41;26.20;1.00
10294;DHT22;5192;50.328;7.610;2023-07-24T14:21:09;26.40;1.00
10294;DHT22;5192;50.328;7.610;2023-07-24T14:23:36;26.60;1.00
10294;DHT22;5192;50.328;7.610;2023-07-24T14:26:04;27.20;1.00
10294;DHT22;5192;50.328;7.610;2023-07-24T14:28:30;28.20;1.00
10294;DHT22;5192;50.328;7.610;2023-07-24T14:30:56;29.00;1.00
10294;DHT22;5192;50.328;7.610;2023-07-24T14:33:23;29.60;1.00
10294;DHT22;5192;50.328;7.610;2023-07-24T14:35:50;29.90;1.00
10294;DHT22;5192;50.328;7.610;2023-07-24T14:38:18;31.40;1.00
10294;DHT22;5192;50.328;7.610;2023-07-24T14:40:44;30.40;1.00
10294;DHT22;5192;50.328;7.610;2023-07-24T14:43:10;31.10;1.00
10294;DHT22;5192;50.328;7.610;2023-07-24T14:45:37;31.50;1.00
10294;DHT22;5192;50.328;7.610;2023-07-24T14:48:05;29.70;1.00
10294;DHT22;5192;50.328;7.610;2023-07-24T14:50:35;29.80;1.00
10294;DHT22;5192;50.328;7.610;2023-07-24T14:53:02;28.90;1.00
10294;DHT22;5192;50.328;7.610;2023-07-24T14:55:29;27.30;1.00
10294;DHT22;5192;50.328;7.610;2023-07-24T14:57:57;26.70;1.00
10294;DHT22;5192;50.328;7.610;2023-07-24T15:00:24;26.50;1.00
10294;DHT22;5192;50.328;7.610;2023-07-24T15:02:51;26.10;1.00
10294;DHT22;5192;50.328;7.610;2023-07-24T15:05:18;25.90;1.00
10294;DHT22;5192;50.328;7.610;2023-07-24T15:07:45;25.60;1.00
10294;DHT22;5192;50.328;7.610;2023-07-24T15:10:12;25.10;1.00
10294;DHT22;5192;50.328;7.610;2023-07-24T15:12:39;25.10;1.00
10294;DHT22;5192;50.328;7.610;2023-07-24T15:15:07;25.00;1.00
10294;DHT22;5192;50.328;7.610;2023-07-24T15:17:34;24.90;1.00
10294;DHT22;5192;50.328;7.610;2023-07-24T15:20:00;24.80;1.00
10294;DHT22;5192;50.328;7.610;2023-07-24T15:22:28;24.50;1.00
10294;DHT22;5192;50.328;7.610;2023-07-24T15:24:55;24.40;1.00
10294;DHT22;5192;50.328;7.610;2023-07-24T15:27:21;24.30;1.00
10294;DHT22;5192;50.328;7.610;2023-07-24T15:29:48;24.20;1.00
10294;DHT22;5192;50.328;7.610;2023-07-24T15:32:15;24.00;1.00
10294;DHT22;5192;50.328;7.610;2023-07-24T15:34:44;23.90;1.00
10294;DHT22;5192;50.328;7.610;2023-07-24T15:37:10;23.80;1.00
10294;DHT22;5192;50.328;7.610;2023-07-24T15:39:37;23.90;1.00
10294;DHT22;5192;50.328;7.610;2023-07-24T15:42:04;23.90;1.00
10294;DHT22;5192;50.328;7.610;2023-07-24T15:44:32;24.10;1.00
10294;DHT22;5192;50.328;7.610;2023-07-24T15:47:00;24.40;1.00
10294;DHT22;5192;50.328;7.610;2023-07-24T15:49:28;24.40;1.00
10294;DHT22;5192;50.328;7.610;2023-07-24T15:51:55;24.30;1.00
10294;DHT22;5192;50.328;7.610;2023-07-24T15:54:20;23.70;1.00
10294;DHT22;5192;50.328;7.610;2023-07-24T15:56:47;23.90;1.00
10294;DHT22;5192;50.328;7.610;2023-07-24T15:59:14;23.80;1.00
10294;DHT22;5192;50.328;7.610;2023-07-24T16:01:42;23.80;1.00